Time;durP1;ratioP1;P1;durP2;ratioP2;P2;SDS_P1;SDS_P2;PMS_P1;PMS_P2;Temp;Humidity;BMP_temperature;BMP_pressure;BME280_temperature;BME280_humidity;BME280_pressure;Samples;Min_cycle;Max_cycle;Signal;HPM_P1;HPM_P2
2022/03/07 00:01:25;;;;;;;3.60;2.90;;;1.70;75.30;;;;;;5104813;27;20343;-69
2022/03/07 00:03:52;;;;;;;4.13;3.03;;;1.70;75.20;;;;;;5078234;28;20232;-68
2022/03/07 00:06:18;;;;;;;3.10;2.70;;;1.70;75.20;;;;;;5069042;28;20220;-68
2022/03/07 00:08:43;;;;;;;4.00;3.27;;;1.70;75.20;;;;;;5073514;28;20212;-68
2022/03/07 00:11:09;;;;;;;4.43;3.27;;;1.70;75.20;;;;;;5111637;27;20187;-68
2022/03/07 00:13:35;;;;;;;3.73;2.73;;;1.70;75.20;;;;;;5089120;28;20308;-69
2022/03/07 00:16:06;;;;;;;3.60;2.83;;;1.70;75.30;;;;;;5079395;28;20202;-69
2022/03/07 00:18:32;;;;;;;4.33;2.90;;;1.70;75.30;;;;;;5086640;28;20202;-68
2022/03/07 00:20:59;;;;;;;4.10;2.93;;;1.70;76.20;;;;;;5102299;27;20207;-69
2022/03/07 00:23:25;;;;;;;2.60;2.37;;;1.70;75.40;;;;;;5077049;28;20252;-67
2022/03/07 00:25:51;;;;;;;4.00;2.70;;;1.70;75.30;;;;;;5107498;27;20279;-67
2022/03/07 00:28:17;;;;;;;3.63;2.50;;;1.70;75.50;;;;;;5108058;27;20195;-69
2022/03/07 00:30:45;;;;;;;2.43;2.13;;;1.70;75.90;;;;;;5110853;27;20176;-69
2022/03/07 00:33:16;;;;;;;3.80;2.23;;;1.70;75.80;;;;;;5112259;27;20188;-69
2022/03/07 00:35:43;;;;;;;3.17;2.30;;;1.80;76.30;;;;;;5103441;27;20200;-67
2022/03/07 00:38:08;;;;;;;2.57;1.87;;;1.80;75.90;;;;;;5072821;28;20192;-69
2022/03/07 00:40:34;;;;;;;2.27;1.90;;;1.80;75.80;;;;;;5075254;28;20191;-69
2022/03/07 00:43:07;;;;;;;3.40;2.13;;;1.80;75.70;;;;;;5080000;28;20261;-69
2022/03/07 00:45:38;;;;;;;2.23;2.03;;;1.80;76.10;;;;;;5106821;27;20192;-69
2022/03/07 00:48:04;;;;;;;3.43;2.30;;;1.80;75.80;;;;;;5109532;27;20180;-69
2022/03/07 00:50:34;;;;;;;2.83;1.70;;;1.80;75.50;;;;;;5107325;27;20201;-69
2022/03/07 00:53:02;;;;;;;3.10;1.97;;;1.90;75.70;;;;;;5096103;28;20179;-68
2022/03/07 00:55:28;;;;;;;2.87;1.90;;;1.90;75.70;;;;;;5076793;28;20183;-65
2022/03/07 00:57:53;;;;;;;2.97;2.00;;;1.80;75.50;;;;;;5108624;27;20198;-68
2022/03/07 01:00:19;;;;;;;2.20;1.80;;;1.80;75.50;;;;;;5079838;28;20179;-68
2022/03/07 01:02:45;;;;;;;2.83;1.97;;;1.80;75.40;;;;;;5079580;28;20250;-69
2022/03/07 01:05:11;;;;;;;3.80;1.90;;;1.80;75.40;;;;;;5074708;28;20210;-63
2022/03/07 01:07:37;;;;;;;3.67;2.20;;;1.80;75.40;;;;;;5080358;28;20180;-67
2022/03/07 01:10:03;;;;;;;3.40;1.90;;;1.80;75.70;;;;;;5079003;28;20210;-70
2022/03/07 01:12:34;;;;;;;2.27;1.80;;;1.80;75.90;;;;;;5105714;27;20183;-68
2022/03/07 01:15:01;;;;;;;2.27;1.93;;;1.80;76.00;;;;;;5084325;28;20739;-68
2022/03/07 01:17:27;;;;;;;2.33;1.87;;;1.80;76.20;;;;;;5085185;28;20211;-69
2022/03/07 01:19:53;;;;;;;2.10;1.90;;;1.80;76.10;;;;;;5090927;28;20251;-68
2022/03/07 01:22:20;;;;;;;3.03;1.93;;;1.80;76.20;;;;;;5081009;28;20199;-67
2022/03/07 01:24:46;;;;;;;2.07;1.77;;;1.80;76.10;;;;;;5077996;28;20447;-69
2022/03/07 01:27:12;;;;;;;3.80;2.10;;;1.70;75.80;;;;;;5070702;28;20268;-69
2022/03/07 01:29:37;;;;;;;2.60;1.80;;;1.70;75.80;;;;;;5082779;28;20195;-69
2022/03/07 01:32:06;;;;;;;1.90;1.70;;;1.70;75.80;;;;;;5071108;28;20216;-65
2022/03/07 01:34:34;;;;;;;2.37;2.00;;;1.70;75.80;;;;;;5068502;28;20180;-69
2022/03/07 01:37:00;;;;;;;2.20;1.73;;;1.60;75.70;;;;;;5075250;28;20199;-68
2022/03/07 01:39:25;;;;;;;2.53;1.80;;;1.60;75.80;;;;;;5108721;28;20194;-66
2022/03/07 01:41:53;;;;;;;2.63;1.80;;;1.60;76.70;;;;;;5106851;27;20211;-68
2022/03/07 01:44:24;;;;;;;2.17;1.70;;;1.50;76.60;;;;;;5080309;28;20214;-68
2022/03/07 01:46:52;;;;;;;3.53;2.00;;;1.50;76.40;;;;;;5112591;27;20249;-69
2022/03/07 01:49:21;;;;;;;3.13;1.70;;;1.50;76.40;;;;;;5083595;28;20175;-67
2022/03/07 01:51:48;;;;;;;2.27;1.83;;;1.50;76.40;;;;;;5111215;28;20291;-66
2022/03/07 01:54:18;;;;;;;2.30;1.50;;;1.50;76.40;;;;;;5109204;28;20261;-69
2022/03/07 01:56:49;;;;;;;1.40;1.30;;;1.50;76.40;;;;;;5117332;28;20269;-67
2022/03/07 01:59:28;;;;;;;1.57;1.47;;;1.50;76.40;;;;;;5073413;28;20184;-67
2022/03/07 02:01:58;;;;;;;2.60;1.80;;;1.50;76.90;;;;;;5070580;28;20298;-68
2022/03/07 02:04:26;;;;;;;2.50;1.67;;;1.50;76.80;;;;;;5078800;28;20238;-68
2022/03/07 02:06:54;;;;;;;1.90;1.60;;;1.50;76.70;;;;;;5074661;28;20211;-69
2022/03/07 02:09:19;;;;;;;1.97;1.60;;;1.60;77.20;;;;;;5101897;28;20169;-67
2022/03/07 02:11:45;;;;;;;1.70;1.30;;;1.60;77.00;;;;;;5070681;28;20191;-68
2022/03/07 02:14:16;;;;;;;2.47;1.30;;;1.60;76.30;;;;;;5074105;28;20204;-69
2022/03/07 02:16:42;;;;;;;2.13;1.37;;;1.60;76.60;;;;;;5110939;28;20192;-66
2022/03/07 02:19:10;;;;;;;1.63;1.30;;;1.60;76.40;;;;;;5108491;28;20185;-69
2022/03/07 02:21:42;;;;;;;2.53;1.43;;;1.60;76.20;;;;;;5078746;28;20208;-68
2022/03/07 02:24:07;;;;;;;1.23;1.13;;;1.60;76.10;;;;;;5080563;28;20188;-68
2022/03/07 02:26:33;;;;;;;2.03;1.27;;;1.60;76.00;;;;;;5080266;28;20258;-64
2022/03/07 02:29:01;;;;;;;2.13;1.40;;;1.60;75.90;;;;;;5082955;28;20183;-68
2022/03/07 02:31:29;;;;;;;1.83;1.20;;;1.60;76.10;;;;;;5072962;28;20189;-68
2022/03/07 02:33:57;;;;;;;2.00;1.13;;;1.60;75.90;;;;;;5086489;28;20188;-69
2022/03/07 02:36:25;;;;;;;1.47;1.30;;;1.60;75.90;;;;;;5072607;28;20378;-69
2022/03/07 02:38:53;;;;;;;1.10;1.00;;;1.50;75.70;;;;;;5100938;28;20192;-69
2022/03/07 02:41:19;;;;;;;2.40;1.10;;;1.50;75.70;;;;;;5106716;28;20491;-69
2022/03/07 02:43:45;;;;;;;1.40;1.20;;;1.50;75.70;;;;;;5078688;28;20267;-68
2022/03/07 02:46:12;;;;;;;1.60;1.20;;;1.50;75.70;;;;;;5086235;28;20203;-68
2022/03/07 02:48:39;;;;;;;1.30;1.17;;;1.50;75.70;;;;;;5082463;28;20180;-69
2022/03/07 02:51:07;;;;;;;1.50;1.23;;;1.50;75.70;;;;;;5108053;27;20235;-68
2022/03/07 02:53:33;;;;;;;2.53;1.40;;;1.40;75.60;;;;;;5079301;28;20177;-69
2022/03/07 02:56:01;;;;;;;1.70;1.20;;;1.40;75.60;;;;;;5108136;27;20176;-69
2022/03/07 02:58:29;;;;;;;1.87;1.23;;;1.40;75.60;;;;;;5079157;28;20210;-69
2022/03/07 03:00:55;;;;;;;1.93;1.20;;;1.30;75.70;;;;;;5083628;28;20183;-69
2022/03/07 03:03:23;;;;;;;1.83;1.37;;;1.40;75.70;;;;;;5108772;28;20203;-69
2022/03/07 03:05:54;;;;;;;1.73;1.30;;;1.30;75.80;;;;;;5074285;28;20210;-69
2022/03/07 03:08:20;;;;;;;1.30;1.20;;;1.30;75.80;;;;;;5105007;27;20416;-69
2022/03/07 03:10:49;;;;;;;2.50;1.40;;;1.30;75.90;;;;;;5074242;28;20200;-69
2022/03/07 03:13:17;;;;;;;2.10;1.20;;;1.30;76.10;;;;;;5073493;28;20248;-67
2022/03/07 03:15:47;;;;;;;2.63;1.10;;;1.20;76.20;;;;;;5091328;28;20190;-67
2022/03/07 03:18:15;;;;;;;1.70;1.20;;;1.20;76.30;;;;;;5099133;27;20204;-69
2022/03/07 03:20:45;;;;;;;1.67;1.10;;;1.20;76.40;;;;;;5113222;27;20180;-69
2022/03/07 03:23:11;;;;;;;1.20;1.10;;;1.20;76.80;;;;;;5076237;28;20236;-69
2022/03/07 03:25:37;;;;;;;1.10;1.00;;;1.20;76.50;;;;;;5083579;28;20230;-68
2022/03/07 03:28:05;;;;;;;1.33;1.20;;;1.20;76.50;;;;;;5101181;28;20234;-69
2022/03/07 03:30:33;;;;;;;1.63;0.93;;;1.10;76.60;;;;;;5081053;28;20182;-69
2022/03/07 03:32:59;;;;;;;1.83;1.10;;;1.10;76.60;;;;;;5072743;28;20291;-69
2022/03/07 03:35:25;;;;;;;1.17;1.07;;;1.10;76.60;;;;;;5113570;27;20278;-69
2022/03/07 03:37:53;;;;;;;1.10;1.00;;;1.10;76.50;;;;;;5104060;27;20226;-69
2022/03/07 03:40:20;;;;;;;1.73;1.10;;;1.10;76.60;;;;;;5077881;28;20187;-68
2022/03/07 03:42:46;;;;;;;1.20;1.10;;;1.00;76.60;;;;;;5082180;28;20210;-68
2022/03/07 03:45:14;;;;;;;2.27;1.20;;;1.00;76.60;;;;;;5082675;28;20196;-69
2022/03/07 03:47:42;;;;;;;1.57;1.30;;;1.00;76.90;;;;;;5098812;27;20198;-68
2022/03/07 03:50:13;;;;;;;0.93;0.87;;;0.90;77.70;;;;;;5109860;27;20264;-67
2022/03/07 03:52:42;;;;;;;1.50;1.00;;;0.90;77.00;;;;;;5108381;27;20219;-68
2022/03/07 03:55:11;;;;;;;1.50;1.13;;;0.80;76.90;;;;;;5109715;27;20180;-69
2022/03/07 03:57:38;;;;;;;1.63;1.20;;;0.80;77.10;;;;;;5107871;27;20188;-66
2022/03/07 04:00:09;;;;;;;1.50;1.27;;;0.80;77.30;;;;;;5105848;27;20220;-67
2022/03/07 04:02:37;;;;;;;1.50;1.20;;;0.70;77.20;;;;;;5077768;28;20214;-68
2022/03/07 04:05:03;;;;;;;1.67;1.30;;;0.70;77.40;;;;;;5104978;27;20196;-69
2022/03/07 04:07:29;;;;;;;2.87;1.40;;;0.70;78.30;;;;;;5070372;28;20204;-68
2022/03/07 04:09:57;;;;;;;2.03;1.40;;;0.60;78.60;;;;;;5107903;27;20176;-68
2022/03/07 04:12:27;;;;;;;1.60;1.50;;;0.60;78.70;;;;;;5107459;27;20198;-68
2022/03/07 04:14:53;;;;;;;2.03;1.30;;;0.60;79.30;;;;;;5104594;27;20192;-68
2022/03/07 04:17:18;;;;;;;2.07;1.40;;;0.50;79.30;;;;;;5068735;28;20191;-68
2022/03/07 04:19:49;;;;;;;2.67;1.40;;;0.50;79.70;;;;;;5078878;28;20237;-68
2022/03/07 04:22:15;;;;;;;2.23;1.50;;;0.50;80.30;;;;;;5111916;27;20195;-68
2022/03/07 04:24:41;;;;;;;2.00;1.50;;;0.50;80.30;;;;;;5078487;28;20177;-69
2022/03/07 04:27:09;;;;;;;1.77;1.20;;;0.50;80.50;;;;;;5077541;28;20283;-69
2022/03/07 04:29:34;;;;;;;2.70;1.50;;;0.40;80.50;;;;;;5107730;28;20172;-68
2022/03/07 04:32:00;;;;;;;2.43;1.30;;;0.40;80.70;;;;;;5076752;28;20182;-69
2022/03/07 04:34:26;;;;;;;1.57;1.30;;;0.40;80.80;;;;;;5084636;28;20231;-69
2022/03/07 04:36:57;;;;;;;2.27;1.80;;;0.40;81.10;;;;;;5080851;28;20196;-69
2022/03/07 04:39:23;;;;;;;2.47;1.87;;;0.40;82.00;;;;;;5077516;28;20465;-68
2022/03/07 04:41:49;;;;;;;3.37;1.60;;;0.40;81.40;;;;;;5086399;28;20200;-69
2022/03/07 04:44:15;;;;;;;2.10;1.87;;;0.40;81.60;;;;;;5113968;27;22042;-68
2022/03/07 04:46:40;;;;;;;1.80;1.60;;;0.40;81.90;;;;;;5112552;27;20303;-67
2022/03/07 04:49:10;;;;;;;2.40;1.77;;;0.30;82.10;;;;;;5107213;27;20546;-68
2022/03/07 04:51:35;;;;;;;4.23;2.03;;;0.30;82.80;;;;;;5088271;28;20186;-69
2022/03/07 04:54:01;;;;;;;2.40;1.80;;;0.30;82.80;;;;;;5074945;28;20187;-69
2022/03/07 04:56:31;;;;;;;2.73;2.00;;;0.30;83.00;;;;;;5076316;28;20188;-69
2022/03/07 04:58:57;;;;;;;2.70;1.57;;;0.20;83.20;;;;;;5104235;27;20206;-68
2022/03/07 05:01:23;;;;;;;3.17;2.10;;;0.20;83.10;;;;;;5075877;28;20200;-65
2022/03/07 05:03:48;;;;;;;3.27;2.33;;;0.20;83.30;;;;;;5080698;28;20266;-68
2022/03/07 05:06:14;;;;;;;2.73;1.70;;;0.20;83.60;;;;;;5108126;27;20188;-69
2022/03/07 05:08:40;;;;;;;2.87;2.00;;;0.20;83.30;;;;;;5102643;27;20254;-64
2022/03/07 05:11:06;;;;;;;2.33;1.50;;;0.10;83.80;;;;;;5088766;28;20190;-66
2022/03/07 05:13:32;;;;;;;3.77;1.83;;;0.10;84.00;;;;;;5100883;27;20188;-67
2022/03/07 05:16:03;;;;;;;2.70;1.70;;;0.10;84.30;;;;;;5083284;28;20200;-68
2022/03/07 05:18:31;;;;;;;2.33;1.60;;;0.10;85.00;;;;;;5108346;27;20209;-70
2022/03/07 05:20:59;;;;;;;2.50;1.87;;;0.10;84.40;;;;;;5075218;28;20195;-69
2022/03/07 05:23:25;;;;;;;2.80;1.77;;;0.10;85.20;;;;;;5108564;27;20477;-67
2022/03/07 05:25:51;;;;;;;3.13;1.90;;;0.10;85.50;;;;;;5100082;27;20185;-69
2022/03/07 05:28:19;;;;;;;2.80;1.77;;;0.10;85.40;;;;;;5106647;27;20176;-68
2022/03/07 05:30:47;;;;;;;3.57;2.37;;;0.10;85.80;;;;;;5109730;27;20236;-68
2022/03/07 05:33:12;;;;;;;2.47;1.77;;;0.10;85.50;;;;;;5086925;28;20180;-68
2022/03/07 05:35:40;;;;;;;3.03;2.03;;;0.10;85.80;;;;;;5099607;27;20210;-65
2022/03/07 05:38:08;;;;;;;2.57;2.20;;;0.20;86.00;;;;;;5082222;28;20250;-68
2022/03/07 05:40:34;;;;;;;3.50;1.80;;;0.20;86.50;;;;;;5073215;28;20198;-69
2022/03/07 05:43:00;;;;;;;3.70;2.33;;;0.20;86.60;;;;;;5074729;28;20229;-68
2022/03/07 05:45:28;;;;;;;4.17;2.03;;;0.20;86.90;;;;;;5106021;27;20420;-68
2022/03/07 05:47:56;;;;;;;3.40;2.20;;;0.30;86.90;;;;;;5102304;28;20176;-67
2022/03/07 05:50:21;;;;;;;2.53;1.97;;;0.30;87.80;;;;;;5073415;28;20199;-71
2022/03/07 05:52:47;;;;;;;2.70;2.00;;;0.30;87.30;;;;;;5071811;28;20189;-72
2022/03/07 05:55:13;;;;;;;3.67;1.90;;;0.30;87.50;;;;;;5098231;28;20191;-71
2022/03/07 05:57:38;;;;;;;3.13;1.70;;;0.30;87.60;;;;;;5104634;28;20203;-70
2022/03/07 06:00:11;;;;;;;2.77;2.20;;;0.30;88.00;;;;;;5075787;28;20213;-71
2022/03/07 06:02:39;;;;;;;2.63;2.30;;;0.30;88.90;;;;;;5105152;28;20287;-70
2022/03/07 06:05:06;;;;;;;4.80;2.30;;;0.40;89.60;;;;;;5081879;28;20173;-71
2022/03/07 06:07:34;;;;;;;2.90;2.07;;;0.40;89.40;;;;;;5108742;28;20176;-70
2022/03/07 06:10:02;;;;;;;2.70;2.13;;;0.40;90.00;;;;;;5104362;28;20192;-65
2022/03/07 06:12:27;;;;;;;3.63;1.93;;;0.40;89.30;;;;;;5075117;28;20199;-70
2022/03/07 06:14:53;;;;;;;3.77;2.20;;;0.50;89.60;;;;;;5074271;28;20215;-68
2022/03/07 06:17:21;;;;;;;3.33;2.43;;;0.50;90.00;;;;;;5105541;28;20241;-69
2022/03/07 06:19:49;;;;;;;3.93;2.03;;;0.50;90.30;;;;;;5069648;28;20188;-71
2022/03/07 06:22:15;;;;;;;2.90;1.90;;;0.50;90.20;;;;;;5074796;28;20211;-73
2022/03/07 06:24:41;;;;;;;2.30;1.80;;;0.50;89.80;;;;;;5110292;27;20196;-69
2022/03/07 06:27:09;;;;;;;2.93;2.03;;;0.50;89.70;;;;;;5074205;28;20242;-71
2022/03/07 06:29:34;;;;;;;3.13;2.17;;;0.50;90.00;;;;;;5091069;28;20200;-66
2022/03/07 06:32:00;;;;;;;5.30;2.20;;;0.60;90.10;;;;;;5109221;27;20225;-71
2022/03/07 06:34:26;;;;;;;4.13;2.00;;;0.60;90.30;;;;;;5112880;27;20207;-70
2022/03/07 06:36:51;;;;;;;2.77;2.13;;;0.60;90.60;;;;;;5112586;27;20195;-71
2022/03/07 06:39:17;;;;;;;2.63;2.10;;;0.60;90.70;;;;;;5075715;28;20185;-65
2022/03/07 06:41:42;;;;;;;7.17;2.63;;;0.60;90.70;;;;;;5081167;28;20207;-75
2022/03/07 06:44:08;;;;;;;2.90;2.20;;;0.60;90.60;;;;;;5108300;27;20196;-72
2022/03/07 06:46:38;;;;;;;3.03;2.33;;;0.60;90.70;;;;;;5077956;28;20193;-72
2022/03/07 06:49:04;;;;;;;4.10;2.30;;;0.60;90.80;;;;;;5102401;27;20179;-73
2022/03/07 06:51:29;;;;;;;2.40;2.20;;;0.60;90.50;;;;;;5085101;28;20187;-70
2022/03/07 06:53:55;;;;;;;4.57;2.30;;;0.70;90.60;;;;;;5116561;27;20203;-73
2022/03/07 06:56:21;;;;;;;2.97;2.60;;;0.70;90.90;;;;;;5075650;28;20305;-71
2022/03/07 06:58:46;;;;;;;4.63;2.27;;;0.80;90.90;;;;;;5112265;27;20188;-70
2022/03/07 07:01:12;;;;;;;3.20;2.57;;;0.80;90.90;;;;;;5076697;28;20200;-72
2022/03/07 07:03:38;;;;;;;2.73;2.20;;;0.80;91.20;;;;;;5117906;27;20211;-74
2022/03/07 07:06:03;;;;;;;3.43;2.40;;;0.90;91.40;;;;;;5083787;28;21758;-74
2022/03/07 07:08:31;;;;;;;3.07;2.10;;;0.90;91.60;;;;;;5082965;28;20240;-74
2022/03/07 07:10:57;;;;;;;4.33;2.60;;;1.00;91.70;;;;;;5076475;28;20484;-72
2022/03/07 07:13:23;;;;;;;4.87;2.27;;;1.10;91.90;;;;;;5081402;28;20314;-74
2022/03/07 07:15:55;;;;;;;3.00;2.20;;;1.10;92.10;;;;;;5076185;28;20290;-76
2022/03/07 07:18:21;;;;;;;3.90;2.60;;;1.10;92.00;;;;;;5081082;28;20200;-77
2022/03/07 07:20:50;;;;;;;2.47;2.27;;;1.20;92.20;;;;;;5081920;28;20310;-76
2022/03/07 07:23:19;;;;;;;2.70;2.30;;;1.20;92.20;;;;;;5106173;27;20207;-72
2022/03/07 07:25:48;;;;;;;2.80;2.33;;;1.30;92.40;;;;;;5089535;28;20233;-67
2022/03/07 07:28:18;;;;;;;3.20;2.00;;;1.40;92.10;;;;;;5096745;28;20260;-77
2022/03/07 07:30:46;;;;;;;3.27;2.07;;;1.40;92.10;;;;;;5075614;28;20179;-77
2022/03/07 07:33:12;;;;;;;5.60;1.97;;;1.50;91.90;;;;;;5110295;27;20238;-78
2022/03/07 07:35:37;;;;;;;2.13;1.90;;;1.60;91.80;;;;;;5108096;28;20184;-77
2022/03/07 07:38:04;;;;;;;2.90;1.93;;;1.60;91.60;;;;;;5079483;28;20176;-77
2022/03/07 07:40:30;;;;;;;4.17;1.97;;;1.70;91.60;;;;;;5082530;28;20175;-76
2022/03/07 07:42:57;;;;;;;2.50;2.03;;;1.80;91.50;;;;;;5073683;28;20287;-76
2022/03/07 07:45:22;;;;;;;2.63;2.03;;;1.80;91.30;;;;;;5089929;28;20195;-77
2022/03/07 07:47:48;;;;;;;1.93;1.60;;;1.90;91.30;;;;;;5085803;28;20168;-78
2022/03/07 07:50:16;;;;;;;4.37;1.87;;;2.00;91.20;;;;;;5076804;28;20177;-77
2022/03/07 07:52:46;;;;;;;2.90;2.03;;;2.00;91.20;;;;;;5079064;28;20195;-77
2022/03/07 07:55:14;;;;;;;2.90;1.90;;;2.10;91.20;;;;;;5108098;27;20184;-78
2022/03/07 07:57:40;;;;;;;2.63;1.90;;;2.20;91.20;;;;;;5076601;28;20172;-78
2022/03/07 08:00:07;;;;;;;2.07;1.80;;;2.20;91.00;;;;;;5082351;28;20199;-76
2022/03/07 08:02:36;;;;;;;3.27;1.80;;;2.30;90.90;;;;;;5121604;27;20207;-77
2022/03/07 08:05:03;;;;;;;3.43;1.90;;;2.40;90.90;;;;;;5084943;28;20272;-78
2022/03/07 08:07:31;;;;;;;3.20;2.00;;;2.40;90.70;;;;;;5112875;28;20176;-78
2022/03/07 08:09:57;;;;;;;2.47;2.00;;;2.50;90.60;;;;;;5088402;28;20167;-77
2022/03/07 08:12:26;;;;;;;1.93;1.67;;;2.50;90.40;;;;;;5085356;28;20190;-77
2022/03/07 08:14:52;;;;;;;2.40;2.07;;;2.50;90.30;;;;;;5119252;27;20187;-73
2022/03/07 08:17:17;;;;;;;3.10;2.13;;;2.50;90.20;;;;;;5086804;28;20189;-78
2022/03/07 08:19:43;;;;;;;2.93;1.83;;;2.60;90.20;;;;;;5073927;28;20207;-75
2022/03/07 08:22:11;;;;;;;2.30;1.90;;;2.60;90.10;;;;;;5101514;27;20200;-77
2022/03/07 08:24:37;;;;;;;3.40;2.00;;;2.60;90.10;;;;;;5072998;28;20169;-78
2022/03/07 08:27:08;;;;;;;2.97;2.10;;;2.70;90.10;;;;;;5077649;28;20221;-79
2022/03/07 08:29:34;;;;;;;2.27;2.07;;;2.70;90.00;;;;;;5112566;27;20245;-75
2022/03/07 08:31:59;;;;;;;3.00;2.00;;;2.70;90.00;;;;;;5077028;28;20203;-80
2022/03/07 08:34:27;;;;;;;2.57;2.27;;;2.80;90.10;;;;;;5113412;27;20184;-77
2022/03/07 08:36:53;;;;;;;2.60;2.30;;;2.80;90.00;;;;;;5113670;27;20311;-80
2022/03/07 08:39:19;;;;;;;3.33;2.10;;;2.90;90.10;;;;;;5093586;28;20205;-78
2022/03/07 08:41:44;;;;;;;3.40;2.30;;;2.90;90.10;;;;;;5086917;28;20207;-79
2022/03/07 08:44:12;;;;;;;3.03;2.20;;;3.00;90.10;;;;;;5112156;27;20206;-73
2022/03/07 08:46:39;;;;;;;3.37;2.10;;;3.00;90.10;;;;;;5118486;27;20191;-78
2022/03/07 08:49:05;;;;;;;2.70;2.10;;;3.10;90.00;;;;;;5118575;27;20207;-76
2022/03/07 08:51:33;;;;;;;2.30;2.00;;;3.10;89.90;;;;;;5113558;27;20203;-77
2022/03/07 08:53:59;;;;;;;3.57;2.23;;;3.20;89.80;;;;;;5109432;28;20184;-74
2022/03/07 08:56:24;;;;;;;2.53;2.10;;;3.20;89.80;;;;;;5113979;27;20248;-78
2022/03/07 08:58:50;;;;;;;2.73;1.87;;;3.30;89.90;;;;;;5107152;27;20223;-75
2022/03/07 09:01:18;;;;;;;2.90;2.40;;;3.30;89.80;;;;;;5109604;28;20194;-78
2022/03/07 09:03:45;;;;;;;2.57;2.37;;;3.40;89.70;;;;;;5068356;28;20196;-77
2022/03/07 09:06:15;;;;;;;2.23;2.03;;;3.50;89.40;;;;;;5077350;28;20254;-80
2022/03/07 09:08:43;;;;;;;3.00;2.40;;;3.50;89.20;;;;;;5111219;28;20267;-70
2022/03/07 09:11:09;;;;;;;2.73;2.10;;;3.60;89.10;;;;;;5114707;27;20234;-78
2022/03/07 09:13:36;;;;;;;2.53;1.90;;;3.70;88.50;;;;;;5122874;27;20203;-76
2022/03/07 09:16:05;;;;;;;4.53;2.30;;;3.70;88.60;;;;;;5111294;28;20184;-78
2022/03/07 09:18:32;;;;;;;2.87;2.33;;;3.80;88.30;;;;;;5106132;27;20274;-77
2022/03/07 09:21:02;;;;;;;2.97;2.30;;;3.90;88.30;;;;;;5091864;28;20203;-79
2022/03/07 09:23:33;;;;;;;3.83;2.40;;;3.90;87.80;;;;;;5118146;27;20203;-77
2022/03/07 09:26:01;;;;;;;2.60;1.90;;;4.00;87.90;;;;;;5085966;28;20180;-79
2022/03/07 09:28:29;;;;;;;2.70;2.10;;;4.10;88.30;;;;;;5070997;28;20212;-74
2022/03/07 09:30:55;;;;;;;2.47;2.20;;;4.20;86.70;;;;;;5108621;27;20183;-79
2022/03/07 09:33:21;;;;;;;2.27;1.80;;;4.30;87.20;;;;;;5099815;28;20274;-79
2022/03/07 09:35:46;;;;;;;3.30;2.30;;;4.40;87.00;;;;;;5100594;28;20337;-75
2022/03/07 09:38:12;;;;;;;2.50;2.00;;;4.40;86.30;;;;;;5079902;28;20188;-79
2022/03/07 09:40:38;;;;;;;2.87;2.10;;;4.60;86.90;;;;;;5112280;27;20206;-76
2022/03/07 09:43:06;;;;;;;3.33;2.20;;;4.90;84.80;;;;;;5112255;27;20199;-80
2022/03/07 09:45:34;;;;;;;2.87;2.37;;;5.60;84.10;;;;;;5060108;28;20184;-79
2022/03/07 09:48:00;;;;;;;3.93;2.43;;;6.20;79.90;;;;;;5070763;28;20176;-79
2022/03/07 09:50:27;;;;;;;2.23;1.80;;;6.90;79.70;;;;;;5081669;28;20176;-75
2022/03/07 09:52:54;;;;;;;2.43;2.00;;;7.60;79.60;;;;;;5062461;28;20204;-78
2022/03/07 09:55:21;;;;;;;2.37;1.80;;;8.10;77.00;;;;;;5096138;28;20195;-72
2022/03/07 09:57:48;;;;;;;3.23;1.83;;;8.60;75.70;;;;;;5067288;28;20237;-78
2022/03/07 10:00:17;;;;;;;2.60;1.87;;;9.20;73.90;;;;;;5082003;28;20183;-75
2022/03/07 10:02:57;;;;;;;3.13;2.20;;;9.70;72.50;;;;;;5075790;28;20277;-73
2022/03/07 10:05:35;;;;;;;3.07;1.83;;;10.10;65.10;;;;;;5108192;28;20171;-79
2022/03/07 10:08:00;;;;;;;3.50;2.00;;;10.50;66.40;;;;;;5079752;28;20176;-77
2022/03/07 10:10:35;;;;;;;2.13;1.93;;;10.80;64.80;;;;;;5129633;28;20171;-71
2022/03/07 10:13:09;;;;;;;2.23;2.00;;;11.00;60.90;;;;;;5103785;28;20180;-78
2022/03/07 10:15:36;;;;;;;2.87;2.03;;;11.20;60.00;;;;;;5072716;28;20176;-77
2022/03/07 10:18:05;;;;;;;1.97;1.83;;;11.40;62.90;;;;;;5104471;28;20180;-79
2022/03/07 10:20:33;;;;;;;2.50;2.10;;;11.50;58.20;;;;;;5113405;28;20187;-79
2022/03/07 10:23:00;;;;;;;2.40;2.10;;;11.60;57.50;;;;;;5071209;28;20220;-77
2022/03/07 10:25:31;;;;;;;2.37;2.10;;;11.60;56.00;;;;;;5075933;28;20241;-79
2022/03/07 10:28:01;;;;;;;2.93;1.90;;;11.60;51.80;;;;;;5081462;28;20174;-77
2022/03/07 10:30:32;;;;;;;3.00;2.00;;;11.60;55.60;;;;;;5066282;28;20172;-77
2022/03/07 10:33:09;;;;;;;2.40;1.90;;;11.60;55.70;;;;;;5095589;28;20195;-79
2022/03/07 10:35:47;;;;;;;2.13;1.70;;;11.70;55.80;;;;;;5076112;28;20207;-78
2022/03/07 10:38:15;;;;;;;2.33;1.87;;;11.70;54.70;;;;;;5080566;28;20192;-78
2022/03/07 10:40:52;;;;;;;5.73;2.17;;;11.80;56.60;;;;;;5104563;28;20196;-79
2022/03/07 10:43:21;;;;;;;2.20;1.80;;;11.90;52.30;;;;;;5113872;28;20195;-79
2022/03/07 10:46:01;;;;;;;3.07;2.00;;;11.80;54.30;;;;;;5108614;28;20199;-78
2022/03/07 10:48:41;;;;;;;2.43;1.80;;;11.80;52.30;;;;;;5076199;28;20167;-79
2022/03/07 10:51:15;;;;;;;3.10;1.77;;;11.70;54.90;;;;;;5107305;28;20251;-76
2022/03/07 10:53:45;;;;;;;2.40;1.60;;;11.70;54.70;;;;;;5103893;28;20176;-81
2022/03/07 10:56:17;;;;;;;1.73;1.60;;;11.80;55.00;;;;;;5098728;28;20180;-79
2022/03/07 10:58:48;;;;;;;2.33;1.70;;;11.80;52.70;;;;;;5083538;28;20222;-78
2022/03/07 11:01:29;;;;;;;4.97;2.03;;;11.80;54.50;;;;;;5085477;28;20278;-77
2022/03/07 11:03:58;;;;;;;1.97;1.70;;;11.80;52.20;;;;;;5089016;28;20247;-75
2022/03/07 11:06:26;;;;;;;1.90;1.70;;;11.70;54.70;;;;;;5102203;28;20195;-78
2022/03/07 11:08:52;;;;;;;1.80;1.70;;;11.70;53.70;;;;;;5106323;27;20177;-79
2022/03/07 11:11:20;;;;;;;2.50;1.70;;;11.60;53.80;;;;;;5086110;28;20182;-79
2022/03/07 11:13:49;;;;;;;1.77;1.50;;;11.60;55.70;;;;;;5070013;28;20216;-79
2022/03/07 11:16:15;;;;;;;2.30;1.90;;;11.60;55.40;;;;;;5077716;28;20213;-79
2022/03/07 11:18:45;;;;;;;2.72;2.00;;;11.60;52.50;;;;;;5093061;28;20192;-78
2022/03/07 11:21:11;;;;;;;2.08;1.63;;;11.50;52.90;;;;;;5113676;28;20168;-76
2022/03/07 11:23:36;;;;;;;2.17;1.60;;;11.40;52.70;;;;;;5063609;28;20215;-76
2022/03/07 11:26:03;;;;;;;2.93;1.80;;;11.40;54.00;;;;;;5089249;28;20230;-74
2022/03/07 11:28:31;;;;;;;2.40;1.70;;;11.40;54.60;;;;;;5082409;28;20271;-80
2022/03/07 11:30:59;;;;;;;2.40;1.88;;;11.40;55.20;;;;;;5081615;28;20228;-76
2022/03/07 11:33:34;;;;;;;2.28;1.85;;;11.50;55.80;;;;;;5085500;28;20175;-79
2022/03/07 11:36:02;;;;;;;2.55;1.90;;;11.50;54.70;;;;;;5100344;27;20283;-80
2022/03/07 11:38:35;;;;;;;3.03;1.90;;;11.50;53.30;;;;;;5080292;28;20191;-82
2022/03/07 11:41:16;;;;;;;1.85;1.60;;;11.60;53.20;;;;;;5087941;28;20262;-79
2022/03/07 11:43:50;;;;;;;1.60;1.50;;;11.60;54.30;;;;;;5095787;28;20191;-79
2022/03/07 11:46:25;;;;;;;2.28;1.80;;;11.60;54.90;;;;;;5071331;28;20244;-79
2022/03/07 11:48:51;;;;;;;1.92;1.73;;;11.80;54.00;;;;;;5085447;28;20183;-78
2022/03/07 11:51:20;;;;;;;2.15;1.73;;;11.90;54.60;;;;;;5078576;28;20176;-78
2022/03/07 11:53:47;;;;;;;1.98;1.80;;;11.90;53.90;;;;;;5081774;28;20271;-78
2022/03/07 11:56:31;;;;;;;2.67;1.70;;;11.90;52.70;;;;;;5081811;28;20175;-77
2022/03/07 11:58:59;;;;;;;1.90;1.60;;;11.90;52.50;;;;;;5115819;27;20244;-79
2022/03/07 12:01:30;;;;;;;1.77;1.67;;;11.90;54.60;;;;;;5101676;28;20268;-79
2022/03/07 12:04:16;;;;;;;1.83;1.60;;;12.00;54.10;;;;;;5110690;27;20195;-75
2022/03/07 12:06:45;;;;;;;2.22;2.03;;;12.10;54.40;;;;;;5114013;27;20179;-78
2022/03/07 12:09:32;;;;;;;2.72;1.70;;;12.30;53.90;;;;;;5111371;27;20188;-79
2022/03/07 12:12:06;;;;;;;3.13;2.10;;;12.40;54.50;;;;;;5102020;27;20178;-67
2022/03/07 12:14:39;;;;;;;1.98;1.77;;;12.30;51.50;;;;;;5082018;28;20470;-72
2022/03/07 12:17:19;;;;;;;2.40;1.60;;;12.30;52.50;;;;;;5104134;27;20173;-76
2022/03/07 12:19:56;;;;;;;2.30;1.98;;;12.30;52.70;;;;;;5074272;28;20202;-77
2022/03/07 12:22:25;;;;;;;2.05;1.85;;;12.20;51.00;;;;;;5113674;27;20218;-76
2022/03/07 12:24:56;;;;;;;3.15;1.98;;;12.20;50.90;;;;;;5098763;28;20164;-78
2022/03/07 12:27:25;;;;;;;3.47;2.15;;;12.20;51.90;;;;;;5080091;28;20355;-78
2022/03/07 12:29:51;;;;;;;3.33;2.00;;;12.20;51.20;;;;;;5107921;27;20196;-78
2022/03/07 12:32:20;;;;;;;3.15;2.05;;;12.10;51.60;;;;;;5112204;27;20241;-71
2022/03/07 12:34:46;;;;;;;2.47;1.83;;;12.10;51.20;;;;;;5103687;27;20339;-78
2022/03/07 12:37:18;;;;;;;2.80;2.10;;;12.20;52.60;;;;;;5096755;27;20184;-78
2022/03/07 12:39:44;;;;;;;2.00;1.80;;;12.20;51.30;;;;;;5092088;28;20189;-74
2022/03/07 12:42:12;;;;;;;2.55;1.90;;;12.20;50.60;;;;;;5086722;28;20291;-78
2022/03/07 12:44:39;;;;;;;2.25;2.00;;;12.30;52.00;;;;;;5106448;27;20189;-77
2022/03/07 12:47:06;;;;;;;1.63;1.50;;;12.30;52.00;;;;;;5080132;28;20186;-79
2022/03/07 12:49:32;;;;;;;2.55;1.90;;;12.40;52.40;;;;;;5075200;28;20172;-79
2022/03/07 12:52:02;;;;;;;3.20;1.70;;;12.50;52.20;;;;;;5085532;28;20186;-79
2022/03/07 12:54:30;;;;;;;2.20;1.67;;;12.60;52.10;;;;;;5083016;28;20179;-77
2022/03/07 12:56:55;;;;;;;2.65;1.55;;;12.70;52.60;;;;;;5101208;28;20180;-79
2022/03/07 12:59:26;;;;;;;2.40;1.70;;;12.90;53.40;;;;;;5084916;28;20209;-76